createdAt,value
2018-01-25T00:00:50.086Z,1.30
2018-01-25T00:03:17.561Z,1.60
2018-01-25T00:05:45.798Z,2.03
2018-01-25T00:08:19.066Z,2.53
2018-01-25T00:10:46.527Z,3.03
2018-01-25T00:13:14.775Z,2.20
2018-01-25T00:15:42.999Z,2.37
2018-01-25T00:18:10.479Z,2.07
2018-01-25T00:20:37.962Z,3.70
2018-01-25T00:23:06.214Z,2.20
2018-01-25T00:25:33.670Z,2.10
2018-01-25T00:28:01.150Z,2.90
2018-01-25T00:30:29.403Z,2.50
2018-01-25T00:32:56.860Z,3.30
2018-01-25T00:35:24.328Z,2.27
2018-01-25T00:37:52.595Z,2.10
2018-01-25T00:40:20.107Z,2.43
2018-01-25T00:42:47.556Z,2.30
2018-01-25T00:45:15.043Z,4.73
2018-01-25T00:47:42.515Z,2.40
2018-01-25T00:50:10.007Z,3.00
2018-01-25T00:52:37.487Z,2.80
2018-01-25T00:55:04.968Z,3.13
2018-01-25T00:57:33.251Z,3.13
2018-01-25T01:00:01.475Z,2.70
2018-01-25T01:02:28.922Z,3.50
2018-01-25T01:04:56.438Z,3.53
2018-01-25T01:07:23.900Z,2.30
2018-01-25T01:09:51.383Z,5.63
2018-01-25T01:12:19.602Z,4.70
2018-01-25T01:14:47.087Z,3.03
2018-01-25T01:17:14.562Z,3.30
2018-01-25T01:19:42.047Z,3.03
2018-01-25T01:22:09.524Z,2.73
2018-01-25T01:24:37.002Z,3.00
2018-01-25T01:27:04.450Z,4.80
2018-01-25T01:29:31.935Z,2.50
2018-01-25T01:31:59.449Z,2.80
2018-01-25T01:34:26.904Z,2.30
2018-01-25T01:36:54.374Z,1.87
2018-01-25T01:39:21.861Z,1.77
2018-01-25T01:41:49.339Z,3.40
2018-01-25T01:44:17.559Z,2.00
2018-01-25T01:46:45.010Z,4.37
2018-01-25T01:49:12.490Z,2.23
2018-01-25T01:51:39.971Z,2.10
2018-01-25T01:54:07.479Z,3.17
2018-01-25T01:56:34.940Z,2.00
2018-01-25T01:59:02.392Z,1.90
2018-01-25T02:01:29.910Z,2.23
2018-01-25T02:03:57.363Z,2.30
2018-01-25T02:06:24.846Z,2.70
2018-01-25T02:08:52.343Z,4.90
2018-01-25T02:11:19.844Z,3.60
2018-01-25T02:13:47.303Z,3.57
2018-01-25T02:16:15.555Z,4.27
2018-01-25T02:18:43.003Z,2.60
2018-01-25T02:21:10.456Z,2.87
2018-01-25T02:23:37.942Z,3.57
2018-01-25T02:26:05.398Z,2.27
2018-01-25T02:28:32.878Z,2.40
2018-01-25T02:31:00.368Z,5.17
2018-01-25T02:33:27.851Z,2.70
2018-01-25T02:35:55.329Z,3.23
2018-01-25T02:38:22.785Z,2.10
2018-01-25T02:40:50.264Z,1.70
2018-01-25T02:43:18.526Z,1.83
2018-01-25T02:45:46.023Z,2.10
2018-01-25T02:48:13.487Z,2.73
2018-01-25T02:50:40.978Z,1.77
2018-01-25T02:53:08.483Z,3.17
2018-01-25T02:55:35.939Z,2.47
2018-01-25T02:58:03.392Z,1.93
2018-01-25T03:00:31.637Z,2.10
2018-01-25T03:02:59.094Z,4.47
2018-01-25T03:05:26.562Z,2.17
2018-01-25T03:07:54.793Z,4.20
2018-01-25T03:10:22.294Z,5.30
2018-01-25T03:12:50.507Z,3.63
2018-01-25T03:15:17.978Z,3.77
2018-01-25T03:17:45.445Z,3.40
2018-01-25T03:20:12.938Z,6.60
2018-01-25T03:22:41.281Z,4.23
2018-01-25T03:25:08.741Z,3.87
2018-01-25T03:27:36.213Z,4.77
2018-01-25T03:30:03.690Z,3.50
2018-01-25T03:32:31.918Z,6.23
2018-01-25T03:34:59.374Z,3.27
2018-01-25T03:37:26.849Z,5.77
2018-01-25T03:39:54.305Z,4.63
2018-01-25T03:42:21.801Z,4.40
2018-01-25T03:44:50.013Z,4.43
2018-01-25T03:47:17.466Z,4.47
2018-01-25T03:49:44.948Z,10.13
2018-01-25T03:52:12.422Z,6.77
2018-01-25T03:54:39.921Z,3.80
2018-01-25T03:57:07.362Z,5.73
2018-01-25T03:59:34.847Z,5.83
2018-01-25T04:02:02.331Z,5.80
2018-01-25T04:04:29.787Z,5.53
2018-01-25T04:06:57.247Z,4.57
2018-01-25T04:09:24.714Z,3.70
2018-01-25T04:11:52.166Z,6.83
2018-01-25T04:14:19.668Z,9.73
2018-01-25T04:16:47.127Z,7.17
2018-01-25T04:19:14.597Z,7.57
2018-01-25T04:21:42.079Z,7.90
2018-01-25T04:24:09.562Z,6.90
2018-01-25T04:26:37.027Z,6.60
2018-01-25T04:29:04.515Z,9.07
2018-01-25T04:31:31.994Z,7.90
2018-01-25T04:33:59.467Z,8.40
2018-01-25T04:36:26.950Z,12.37
2018-01-25T04:38:54.411Z,9.00
2018-01-25T04:41:21.899Z,10.00
2018-01-25T04:43:49.366Z,8.13
2018-01-25T04:46:16.850Z,10.03
2018-01-25T04:48:44.300Z,8.80
2018-01-25T04:51:11.779Z,14.20
2018-01-25T04:53:39.227Z,10.33
2018-01-25T04:56:06.707Z,9.93
2018-01-25T04:58:34.180Z,11.70
2018-01-25T05:01:02.422Z,9.63
2018-01-25T05:03:29.887Z,15.23
2018-01-25T05:05:57.367Z,14.43
2018-01-25T05:08:25.595Z,16.03
2018-01-25T05:10:53.165Z,12.23
2018-01-25T05:13:20.654Z,15.03
2018-01-25T05:15:48.886Z,11.57
2018-01-25T05:18:16.375Z,17.63
2018-01-25T05:20:43.826Z,11.20
2018-01-25T05:23:11.315Z,13.63
2018-01-25T05:25:39.539Z,13.40
2018-01-25T05:28:07.019Z,15.07
2018-01-25T05:30:34.502Z,11.57
2018-01-25T05:33:01.978Z,14.97
2018-01-25T05:35:29.441Z,14.37
2018-01-25T05:37:56.933Z,14.00
2018-01-25T05:40:24.414Z,13.87
2018-01-25T05:42:52.022Z,10.27
2018-01-25T05:45:19.482Z,12.80
2018-01-25T05:47:46.946Z,15.77
2018-01-25T05:50:14.443Z,13.73
2018-01-25T05:52:41.898Z,13.93
2018-01-25T05:55:09.379Z,12.77
2018-01-25T05:57:36.838Z,12.53
2018-01-25T06:00:04.734Z,13.43
2018-01-25T06:02:32.210Z,13.10
2018-01-25T06:04:59.703Z,12.80
2018-01-25T06:07:27.931Z,15.17
2018-01-25T06:09:55.422Z,16.47
2018-01-25T06:12:22.899Z,17.90
2018-01-25T06:14:51.167Z,15.17
2018-01-25T06:17:18.631Z,12.13
2018-01-25T06:19:46.855Z,14.27
2018-01-25T06:22:14.346Z,14.80
2018-01-25T06:24:41.834Z,11.77
2018-01-25T06:27:09.299Z,18.77
2018-01-25T06:29:37.077Z,15.87
2018-01-25T06:32:04.543Z,17.47
2018-01-25T06:34:32.075Z,15.47
2018-01-25T06:37:00.278Z,12.93
2018-01-25T06:39:27.759Z,14.70
2018-01-25T06:41:55.241Z,15.17
2018-01-25T06:44:23.471Z,14.20
2018-01-25T06:46:50.954Z,17.37
2018-01-25T06:49:18.421Z,18.87
2018-01-25T06:51:45.899Z,18.50
2018-01-25T06:54:14.134Z,18.37
2018-01-25T06:56:41.622Z,18.53
2018-01-25T06:59:09.853Z,17.97
2018-01-25T07:01:37.320Z,15.83
2018-01-25T07:04:05.584Z,22.20
2018-01-25T07:06:33.055Z,16.73
2018-01-25T07:09:00.550Z,16.00
2018-01-25T07:11:28.783Z,17.67
2018-01-25T07:13:56.262Z,15.83
2018-01-25T07:16:23.740Z,18.13
2018-01-25T07:18:51.990Z,24.43
2018-01-25T07:21:19.455Z,15.50
2018-01-25T07:23:46.943Z,20.17
2018-01-25T07:26:14.449Z,15.73
2018-01-25T07:28:41.916Z,19.63
2018-01-25T07:31:09.483Z,19.67
2018-01-25T07:33:36.939Z,16.87
2018-01-25T07:36:04.423Z,15.47
2018-01-25T07:38:32.719Z,20.27
2018-01-25T07:41:00.206Z,16.53
2018-01-25T07:43:27.682Z,21.43
2018-01-25T07:45:55.159Z,21.50
2018-01-25T07:48:22.630Z,17.47
2018-01-25T07:50:50.139Z,19.40
2018-01-25T07:53:17.599Z,12.13
2018-01-25T07:55:45.832Z,20.03
2018-01-25T07:58:19.911Z,20.53
2018-01-25T08:00:48.139Z,19.70
2018-01-25T08:03:15.646Z,16.13
2018-01-25T08:05:43.102Z,19.17
2018-01-25T08:08:11.335Z,19.80
2018-01-25T08:10:38.826Z,16.73
2018-01-25T08:13:11.951Z,19.30
2018-01-25T08:15:39.435Z,20.20
2018-01-25T08:18:06.889Z,17.50
2018-01-25T08:20:34.379Z,24.20
2018-01-25T08:23:01.854Z,18.47
2018-01-25T08:25:30.102Z,22.33
2018-01-25T08:27:57.594Z,16.27
2018-01-25T08:30:25.839Z,21.77
2018-01-25T08:32:53.317Z,21.47
2018-01-25T08:35:21.569Z,18.27
2018-01-25T08:37:49.067Z,18.07
2018-01-25T08:40:16.539Z,23.00
2018-01-25T08:42:44.003Z,23.90
2018-01-25T08:45:11.533Z,20.13
2018-01-25T08:47:38.995Z,15.80
2018-01-25T08:50:07.219Z,22.43
2018-01-25T08:52:34.712Z,19.37
2018-01-25T08:55:02.942Z,14.73
2018-01-25T08:57:30.415Z,16.03
2018-01-25T08:59:57.926Z,21.33
2018-01-25T09:02:25.395Z,21.80
2018-01-25T09:04:52.866Z,18.67
2018-01-25T09:07:20.360Z,18.13
2018-01-25T09:09:47.836Z,19.00
2018-01-25T09:12:16.072Z,17.83
2018-01-25T09:14:43.554Z,20.40
2018-01-25T09:17:11.038Z,17.17
2018-01-25T09:19:38.544Z,20.50
2018-01-25T09:22:05.998Z,21.47
2018-01-25T09:24:33.458Z,17.67
2018-01-25T09:27:00.949Z,18.43
2018-01-25T09:29:28.422Z,22.07
2018-01-25T09:31:55.912Z,18.90
2018-01-25T09:34:23.394Z,21.67
2018-01-25T09:36:50.878Z,24.40
2018-01-25T09:39:19.131Z,17.17
2018-01-25T09:41:46.630Z,17.13
2018-01-25T09:44:14.091Z,15.93
2018-01-25T09:46:41.551Z,17.67
2018-01-25T09:49:09.031Z,17.90
2018-01-25T09:51:36.520Z,18.53
2018-01-25T09:54:03.978Z,20.43
2018-01-25T09:56:31.435Z,24.47
2018-01-25T09:58:58.914Z,20.23
2018-01-25T10:01:26.371Z,24.33
2018-01-25T10:03:54.614Z,14.77
2018-01-25T10:06:22.077Z,14.47
2018-01-25T10:08:49.554Z,21.97
2018-01-25T10:11:17.038Z,18.03
2018-01-25T10:13:44.501Z,12.87
2018-01-25T10:16:11.980Z,16.13
2018-01-25T10:18:39.459Z,14.03
2018-01-25T10:21:06.993Z,14.93
2018-01-25T10:23:34.437Z,15.33
2018-01-25T10:26:01.926Z,18.50
2018-01-25T10:28:29.387Z,18.53
2018-01-25T10:30:56.850Z,18.33
2018-01-25T10:33:24.351Z,17.67
2018-01-25T10:35:51.838Z,15.23
2018-01-25T10:38:19.297Z,16.40
2018-01-25T10:40:46.783Z,17.57
2018-01-25T10:43:14.243Z,22.37
2018-01-25T10:45:41.699Z,16.10
2018-01-25T10:48:09.211Z,19.10
2018-01-25T10:50:36.708Z,16.37
2018-01-25T10:53:04.173Z,15.03
2018-01-25T10:55:31.631Z,17.20
2018-01-25T10:57:59.118Z,17.97
2018-01-25T11:00:27.343Z,25.60
2018-01-25T11:02:54.847Z,16.73
2018-01-25T11:05:22.297Z,21.10
2018-01-25T11:07:49.779Z,21.13
2018-01-25T11:10:18.041Z,21.70
2018-01-25T11:12:46.282Z,16.43
2018-01-25T11:15:13.738Z,19.40
2018-01-25T11:17:41.230Z,21.30
2018-01-25T11:20:09.459Z,23.27
2018-01-25T11:22:37.779Z,25.67
2018-01-25T11:25:05.246Z,24.60
2018-01-25T11:27:33.478Z,18.43
2018-01-25T11:30:00.978Z,22.70
2018-01-25T11:32:28.454Z,25.67
2018-01-25T11:34:56.679Z,22.33
2018-01-25T11:37:24.166Z,25.97
2018-01-25T11:39:51.671Z,29.13
2018-01-25T11:42:19.132Z,22.10
2018-01-25T11:44:46.587Z,24.67
2018-01-25T11:47:14.095Z,22.33
2018-01-25T11:49:41.560Z,22.33
2018-01-25T11:52:09.034Z,25.03
2018-01-25T11:54:37.286Z,19.67
2018-01-25T11:57:04.795Z,20.40
2018-01-25T11:59:32.255Z,20.50
2018-01-25T12:01:59.706Z,19.90
2018-01-25T12:04:27.210Z,20.80
2018-01-25T12:06:54.674Z,18.73
2018-01-25T12:09:23.021Z,21.00
2018-01-25T12:11:50.469Z,19.30
2018-01-25T12:14:17.947Z,17.07
2018-01-25T12:16:45.430Z,21.17
2018-01-25T12:19:12.914Z,17.10
2018-01-25T12:21:40.370Z,16.27
2018-01-25T12:24:07.878Z,20.03
2018-01-25T12:26:35.364Z,18.00
2018-01-25T12:29:02.835Z,24.60
2018-01-25T12:31:30.327Z,19.33
2018-01-25T12:33:58.570Z,20.03
2018-01-25T12:36:26.851Z,18.00
2018-01-25T12:38:54.311Z,28.53
2018-01-25T12:41:21.800Z,16.07
2018-01-25T12:43:50.037Z,23.27
2018-01-25T12:46:18.275Z,16.80
2018-01-25T12:48:45.755Z,22.73
2018-01-25T12:51:14.134Z,20.80
2018-01-25T12:53:41.626Z,17.60
2018-01-25T12:56:09.095Z,15.23
2018-01-25T12:58:36.551Z,17.30
2018-01-25T13:01:04.037Z,20.80
2018-01-25T13:03:31.766Z,20.13
2018-01-25T13:05:59.231Z,21.90
2018-01-25T13:08:26.687Z,21.13
2018-01-25T13:10:54.167Z,18.50
2018-01-25T13:13:21.627Z,13.80
2018-01-25T13:15:49.130Z,20.07
2018-01-25T13:18:16.597Z,19.83
2018-01-25T13:20:44.080Z,17.93
2018-01-25T13:23:11.539Z,17.30
2018-01-25T13:25:39.019Z,21.07
2018-01-25T13:28:06.482Z,19.83
2018-01-25T13:30:33.975Z,21.63
2018-01-25T13:33:07.067Z,20.07
2018-01-25T13:35:34.535Z,26.37
2018-01-25T13:38:02.096Z,19.47
2018-01-25T13:40:29.553Z,20.27
2018-01-25T13:42:57.134Z,23.87
2018-01-25T13:45:24.889Z,22.73
2018-01-25T13:47:52.457Z,22.70
2018-01-25T13:50:19.927Z,24.73
2018-01-25T13:52:47.383Z,22.83
2018-01-25T13:55:14.879Z,25.70
2018-01-25T13:57:43.106Z,25.93
2018-01-25T14:00:10.586Z,33.73
2018-01-25T14:02:38.100Z,23.00
2018-01-25T14:05:05.535Z,28.43
2018-01-25T14:07:33.085Z,20.20
2018-01-25T14:10:00.541Z,21.57
2018-01-25T14:12:28.771Z,25.43
2018-01-25T14:14:56.251Z,20.80
2018-01-25T14:17:23.728Z,22.40
2018-01-25T14:19:52.075Z,19.90
2018-01-25T14:22:19.530Z,24.23
2018-01-25T14:24:46.992Z,24.20
2018-01-25T14:27:15.253Z,19.10
2018-01-25T14:29:42.733Z,19.97
2018-01-25T14:32:10.261Z,35.10
2018-01-25T14:34:37.739Z,25.23
2018-01-25T14:37:05.219Z,24.83
2018-01-25T14:39:32.703Z,20.53
2018-01-25T14:42:00.173Z,19.37
2018-01-25T14:44:27.689Z,22.50
2018-01-25T14:46:55.143Z,19.83
2018-01-25T14:49:22.658Z,22.37
2018-01-25T14:51:50.135Z,22.53
2018-01-25T14:54:17.595Z,21.27
2018-01-25T14:56:45.083Z,19.50
2018-01-25T14:59:12.562Z,20.27
2018-01-25T15:01:40.039Z,21.03
2018-01-25T15:04:07.594Z,21.97
2018-01-25T15:06:35.068Z,22.43
2018-01-25T15:09:02.592Z,30.33
2018-01-25T15:11:30.304Z,24.40
2018-01-25T15:13:58.531Z,20.23
2018-01-25T15:16:26.020Z,24.87
2018-01-25T15:18:53.502Z,18.40
2018-01-25T15:21:20.967Z,24.10
2018-01-25T15:23:48.469Z,20.77
2018-01-25T15:26:19.864Z,21.97
2018-01-25T15:28:47.351Z,27.40
2018-01-25T15:31:14.838Z,23.83
2018-01-25T15:33:42.310Z,23.70
2018-01-25T15:36:09.798Z,18.43
2018-01-25T15:38:37.325Z,22.20
2018-01-25T15:41:04.791Z,17.83
2018-01-25T15:43:32.258Z,21.27
2018-01-25T15:45:59.783Z,21.43
2018-01-25T15:48:27.266Z,28.50
2018-01-25T15:50:54.751Z,18.53
2018-01-25T15:53:22.248Z,21.00
2018-01-25T15:55:49.738Z,23.63
2018-01-25T15:58:17.219Z,25.03
2018-01-25T16:00:44.678Z,20.23
2018-01-25T16:03:12.176Z,21.10
2018-01-25T16:05:39.661Z,24.20
2018-01-25T16:08:07.129Z,26.10
2018-01-25T16:10:35.427Z,29.47
2018-01-25T16:13:02.935Z,25.77
2018-01-25T16:15:30.424Z,24.63
2018-01-25T16:17:57.954Z,33.57
2018-01-25T16:20:25.428Z,24.57
2018-01-25T16:22:52.920Z,23.93
2018-01-25T16:25:20.438Z,24.43
2018-01-25T16:27:47.910Z,18.57
2018-01-25T16:30:15.399Z,25.63
2018-01-25T16:32:42.894Z,24.73
2018-01-25T16:35:10.374Z,22.17
2018-01-25T16:37:37.868Z,22.33
2018-01-25T16:40:05.327Z,22.50
2018-01-25T16:42:33.571Z,23.77
2018-01-25T16:45:01.055Z,27.23
2018-01-25T16:47:28.543Z,22.90
2018-01-25T16:49:56.003Z,24.73
2018-01-25T16:52:23.494Z,27.73
2018-01-25T16:54:51.002Z,29.63
2018-01-25T16:57:18.518Z,23.13
2018-01-25T16:59:45.979Z,29.27
2018-01-25T17:02:13.486Z,27.57
2018-01-25T17:04:40.987Z,25.10
2018-01-25T17:07:08.491Z,23.30
2018-01-25T17:09:35.990Z,24.27
2018-01-25T17:12:03.507Z,27.63
2018-01-25T17:14:31.021Z,25.70
2018-01-25T17:16:58.544Z,22.13
2018-01-25T17:19:26.003Z,25.67
2018-01-25T17:21:53.664Z,20.87
2018-01-25T17:24:21.147Z,24.97
2018-01-25T17:26:48.615Z,22.20
2018-01-25T17:29:16.874Z,22.80
2018-01-25T17:31:44.338Z,29.20
2018-01-25T17:34:11.821Z,25.03
2018-01-25T17:36:39.278Z,25.90
2018-01-25T17:39:06.762Z,26.83
2018-01-25T17:41:34.236Z,22.17
2018-01-25T17:44:01.752Z,25.33
2018-01-25T17:46:29.213Z,25.87
2018-01-25T17:48:57.454Z,31.07
2018-01-25T17:51:24.954Z,36.43
2018-01-25T17:53:53.215Z,24.93
2018-01-25T17:56:20.698Z,25.80
2018-01-25T17:58:48.964Z,30.37
2018-01-25T18:01:16.411Z,26.73
2018-01-25T18:03:44.655Z,25.97
2018-01-25T18:06:12.143Z,29.70
2018-01-25T18:08:39.627Z,23.93
2018-01-25T18:11:07.100Z,25.33
2018-01-25T18:13:34.619Z,24.70
2018-01-25T18:16:02.072Z,25.73
2018-01-25T18:18:29.557Z,32.57
2018-01-25T18:20:57.038Z,32.53
2018-01-25T18:23:24.687Z,26.50
2018-01-25T18:25:52.922Z,30.30
2018-01-25T18:28:20.411Z,33.90
2018-01-25T18:30:47.887Z,30.57
2018-01-25T18:33:15.368Z,28.20
2018-01-25T18:35:42.855Z,31.37
2018-01-25T18:38:11.086Z,28.80
2018-01-25T18:40:38.582Z,30.77
2018-01-25T18:43:06.046Z,29.87
2018-01-25T18:45:34.307Z,34.80
2018-01-25T18:48:01.809Z,34.20
2018-01-25T18:50:29.290Z,36.23
2018-01-25T18:52:56.750Z,30.97
2018-01-25T18:55:24.243Z,33.87
2018-01-25T18:57:51.706Z,34.90
2018-01-25T19:00:19.200Z,32.27
2018-01-25T19:02:46.656Z,31.10
2018-01-25T19:05:14.143Z,28.23
2018-01-25T19:07:41.613Z,31.67
2018-01-25T19:10:09.087Z,33.40
2018-01-25T19:12:36.585Z,30.17
2018-01-25T19:15:04.041Z,32.37
2018-01-25T19:17:31.523Z,33.47
2018-01-25T19:19:58.986Z,32.80
2018-01-25T19:22:26.473Z,36.23
2018-01-25T19:24:53.939Z,33.73
2018-01-25T19:27:22.199Z,37.17
2018-01-25T19:29:49.682Z,32.00
2018-01-25T19:32:17.182Z,32.77
2018-01-25T19:34:44.651Z,28.10
2018-01-25T19:37:12.143Z,37.40
2018-01-25T19:39:40.376Z,34.73
2018-01-25T19:42:08.640Z,35.43
2018-01-25T19:44:36.099Z,29.47
2018-01-25T19:47:03.558Z,33.87
2018-01-25T19:49:31.077Z,31.07
2018-01-25T19:51:59.290Z,40.90
2018-01-25T19:54:26.795Z,32.70
2018-01-25T19:56:55.019Z,32.13
2018-01-25T19:59:22.502Z,30.77
2018-01-25T20:01:49.959Z,33.77
2018-01-25T20:04:17.443Z,32.83
2018-01-25T20:06:45.753Z,33.80
2018-01-25T20:09:13.210Z,29.33
2018-01-25T20:11:40.691Z,33.97
2018-01-25T20:14:08.346Z,37.67
2018-01-25T20:16:35.803Z,35.93
2018-01-25T20:19:03.258Z,33.07
2018-01-25T20:21:30.817Z,35.17
2018-01-25T20:23:58.234Z,31.67
2018-01-25T20:26:25.724Z,35.60
2018-01-25T20:28:53.215Z,31.67
2018-01-25T20:31:20.662Z,35.70
2018-01-25T20:33:48.916Z,35.90
2018-01-25T20:36:16.470Z,34.00
2018-01-25T20:38:43.959Z,34.60
2018-01-25T20:41:11.422Z,31.33
2018-01-25T20:43:38.911Z,40.70
2018-01-25T20:46:06.394Z,37.90
2018-01-25T20:48:33.882Z,34.80
2018-01-25T20:51:01.369Z,33.97
2018-01-25T20:53:28.818Z,36.13
2018-01-25T20:55:56.343Z,33.00
2018-01-25T20:58:23.803Z,33.17
2018-01-25T21:00:51.266Z,34.70
2018-01-25T21:03:18.768Z,37.20
2018-01-25T21:05:46.246Z,34.97
2018-01-25T21:08:13.730Z,35.93
2018-01-25T21:10:41.215Z,35.00
2018-01-25T21:16:03.318Z,42.83
2018-01-25T21:18:30.807Z,35.83
2018-01-25T21:20:58.262Z,32.20
2018-01-25T21:23:25.719Z,32.67
2018-01-25T21:25:53.203Z,31.83
2018-01-25T21:28:20.663Z,37.73
2018-01-25T21:30:48.144Z,34.10
2018-01-25T21:33:16.489Z,32.97
2018-01-25T21:35:44.076Z,36.10
2018-01-25T21:38:11.539Z,34.77
2018-01-25T21:40:39.759Z,33.73
2018-01-25T21:43:07.238Z,35.57
2018-01-25T21:45:34.694Z,37.47
2018-01-25T21:48:02.954Z,34.53
2018-01-25T21:50:30.411Z,39.70
2018-01-25T21:52:57.923Z,33.87
2018-01-25T21:55:26.151Z,43.70
2018-01-25T21:57:53.602Z,40.17
2018-01-25T22:00:21.087Z,38.53
2018-01-25T22:02:48.566Z,42.67
2018-01-25T22:05:16.819Z,45.87
2018-01-25T22:07:44.302Z,43.10
2018-01-25T22:10:12.534Z,42.97
2018-01-25T22:12:40.024Z,48.30
2018-01-25T22:15:07.481Z,31.87
2018-01-25T22:17:34.931Z,37.33
2018-01-25T22:20:02.434Z,35.80
2018-01-25T22:22:29.903Z,36.37
2018-01-25T22:24:57.377Z,37.67
2018-01-25T22:27:24.881Z,32.93
2018-01-25T22:29:53.107Z,39.17
2018-01-25T22:32:20.558Z,41.97
2018-01-25T22:34:48.050Z,32.93
2018-01-25T22:37:15.534Z,29.77
2018-01-25T22:39:43.043Z,37.97
2018-01-25T22:42:10.498Z,31.70
2018-01-25T22:44:37.963Z,36.13
2018-01-25T22:47:05.449Z,37.63
2018-01-25T22:49:33.702Z,34.43
2018-01-25T22:52:01.208Z,31.70
2018-01-25T22:54:28.688Z,37.77
2018-01-25T22:56:56.140Z,41.30
2018-01-25T22:59:23.631Z,37.97
2018-01-25T23:01:51.098Z,41.53
2018-01-25T23:04:18.553Z,38.03
2018-01-25T23:06:46.138Z,40.87
2018-01-25T23:09:13.622Z,39.60
2018-01-25T23:11:41.090Z,39.00
2018-01-25T23:14:08.567Z,39.80
2018-01-25T23:16:36.027Z,39.87
2018-01-25T23:19:03.511Z,40.77
2018-01-25T23:21:30.991Z,38.17
2018-01-25T23:23:58.470Z,35.97
2018-01-25T23:26:25.950Z,32.63
2018-01-25T23:28:53.408Z,39.80
2018-01-25T23:31:20.883Z,37.30
2018-01-25T23:33:48.355Z,47.30
2018-01-25T23:36:16.598Z,37.53
2018-01-25T23:38:44.053Z,36.80
2018-01-25T23:41:11.535Z,42.97
2018-01-25T23:43:38.991Z,40.63
2018-01-25T23:46:06.476Z,43.27
2018-01-25T23:48:33.940Z,41.93
2018-01-25T23:51:01.426Z,39.83
2018-01-25T23:53:28.912Z,44.30
2018-01-25T23:55:56.362Z,48.77
2018-01-25T23:58:23.847Z,44.03
